createdAt,value
2019-05-07T00:02:13.451Z,101904.37
2019-05-07T00:05:33.155Z,101902.05
2019-05-07T00:08:20.371Z,101906.23
2019-05-07T00:10:56.153Z,101903.45
2019-05-07T00:13:33.279Z,101907.98
2019-05-07T00:16:32.593Z,101908.72
2019-05-07T00:19:08.751Z,101906.78
2019-05-07T00:21:44.572Z,101908.31
2019-05-07T00:24:22.259Z,101904.78
2019-05-07T00:27:36.938Z,101902.31
2019-05-07T00:37:32.131Z,101906.35
2019-05-07T00:55:23.766Z,101908.75
2019-05-07T00:57:59.500Z,101908.29
2019-05-07T01:00:35.576Z,101911.81
2019-05-07T01:16:25.007Z,101912.30
2019-05-07T01:19:42.347Z,101909.98
2019-05-07T01:22:17.487Z,101910.91
2019-05-07T01:37:06.468Z,101908.40
2019-05-07T01:48:48.522Z,101909.12
2019-05-07T01:51:28.035Z,101914.81
2019-05-07T01:54:03.193Z,101915.74
2019-05-07T01:56:39.150Z,101913.19
2019-05-07T01:59:15.446Z,101911.22
2019-05-07T02:18:17.576Z,101921.89
2019-05-07T02:33:26.793Z,101914.86
2019-05-07T02:39:53.104Z,101918.67
2019-05-07T02:42:27.222Z,101919.34
2019-05-07T02:48:25.837Z,101919.45
2019-05-07T02:54:27.322Z,101923.78
2019-05-07T03:04:18.650Z,101924.58
2019-05-07T03:07:06.135Z,101921.63
2019-05-07T03:13:26.336Z,101912.69
2019-05-07T03:22:43.490Z,101918.37
2019-05-07T03:25:43.122Z,101915.39
2019-05-07T03:28:57.092Z,101912.27
2019-05-07T03:43:06.093Z,101909.11
2019-05-07T04:00:04.243Z,101911.37
2019-05-07T04:06:45.243Z,101912.88
2019-05-07T04:14:13.830Z,101910.72
2019-05-07T04:32:55.040Z,101905.93
2019-05-07T04:36:02.973Z,101908.97
2019-05-07T05:17:51.481Z,101924.91
2019-05-07T05:27:47.758Z,101928.08
2019-05-07T05:34:26.849Z,101928.14
2019-05-07T05:37:02.566Z,101930.91
2019-05-07T05:40:04.873Z,101923.37
2019-05-07T05:42:34.955Z,101928.52
2019-05-07T05:48:51.983Z,101926.77
2019-05-07T05:51:45.391Z,101933.76
2019-05-07T05:55:02.547Z,101926.16
2019-05-07T06:01:47.740Z,101919.22
2019-05-07T06:04:42.363Z,101928.73
2019-05-07T06:07:47.044Z,101924.50
2019-05-07T06:10:38.835Z,101925.19
2019-05-07T06:13:28.602Z,101925.80
2019-05-07T06:16:13.032Z,101921.61
2019-05-07T06:22:48.654Z,101930.44
2019-05-07T06:25:24.960Z,101929.17
2019-05-07T06:28:01.976Z,101929.68
2019-05-07T06:31:12.655Z,101928.13
2019-05-07T06:33:49.676Z,101928.04
2019-05-07T06:36:25.640Z,101922.02
2019-05-07T06:39:14.647Z,101924.73
2019-05-07T06:42:42.854Z,101922.52
2019-05-07T06:45:39.044Z,101922.80
2019-05-07T06:48:14.864Z,101929.27
2019-05-07T06:50:59.361Z,101930.00
2019-05-07T06:53:35.237Z,101926.27
2019-05-07T06:56:12.058Z,101928.50
2019-05-07T06:59:13.250Z,101927.97
2019-05-07T07:02:06.412Z,101922.83
2019-05-07T07:04:48.429Z,101921.26
2019-05-07T07:07:37.588Z,101920.89
2019-05-07T07:10:29.158Z,101918.94
2019-05-07T07:13:04.206Z,101918.64
2019-05-07T07:15:39.233Z,101914.75
2019-05-07T07:18:14.060Z,101916.06
2019-05-07T07:20:49.043Z,101917.53
2019-05-07T07:23:24.740Z,101918.22
2019-05-07T07:25:59.997Z,101912.44
2019-05-07T07:28:35.962Z,101915.39
2019-05-07T07:31:39.318Z,101919.14
2019-05-07T07:34:14.367Z,101917.92
2019-05-07T07:39:52.501Z,101918.45
2019-05-07T07:42:27.524Z,101911.71
2019-05-07T07:45:23.050Z,101907.05
2019-05-07T07:47:58.146Z,101905.19
2019-05-07T07:50:33.888Z,101909.27
2019-05-07T07:53:08.896Z,101910.36
2019-05-07T07:56:03.582Z,101907.58
2019-05-07T07:59:01.990Z,101906.84
2019-05-07T08:01:58.061Z,101900.17
2019-05-07T08:04:33.545Z,101905.45
2019-05-07T08:07:08.540Z,101903.84
2019-05-07T08:10:19.133Z,101906.80
2019-05-07T08:12:54.120Z,101899.23
2019-05-07T08:15:29.106Z,101902.88
2019-05-07T08:18:04.924Z,101898.66
2019-05-07T08:20:39.938Z,101896.37
2019-05-07T08:23:15.891Z,101896.86
2019-05-07T08:25:52.572Z,101897.45
2019-05-07T08:28:27.857Z,101896.17
2019-05-07T08:31:15.528Z,101889.94
2019-05-07T08:33:57.012Z,101887.16
2019-05-07T08:36:33.097Z,101885.53
2019-05-07T08:39:08.794Z,101890.50
2019-05-07T08:42:18.798Z,101881.57
2019-05-07T08:45:04.010Z,101885.09
2019-05-07T08:47:46.343Z,101882.53
2019-05-07T08:50:22.463Z,101879.97
2019-05-07T08:52:58.235Z,101878.98
2019-05-07T08:55:33.685Z,101867.72
2019-05-07T08:58:08.761Z,101867.77
2019-05-07T09:00:44.191Z,101861.90
2019-05-07T09:03:38.013Z,101872.49
2019-05-07T09:06:14.317Z,101864.48
2019-05-07T09:08:49.481Z,101857.20
2019-05-07T09:11:24.543Z,101859.31
2019-05-07T09:14:01.726Z,101857.48
2019-05-07T09:16:36.339Z,101853.04
2019-05-07T09:19:12.830Z,101851.00
2019-05-07T09:21:48.282Z,101856.98
2019-05-07T09:24:23.455Z,101855.09
2019-05-07T09:27:17.376Z,101852.77
2019-05-07T09:30:06.840Z,101849.05
2019-05-07T09:32:47.315Z,101836.09
2019-05-07T09:35:42.423Z,101839.56
2019-05-07T09:38:17.633Z,101842.41
2019-05-07T09:40:52.819Z,101841.09
2019-05-07T09:43:27.891Z,101839.46
2019-05-07T09:46:04.872Z,101839.55
2019-05-07T09:48:41.648Z,101832.80
2019-05-07T09:51:16.618Z,101829.78
2019-05-07T09:53:52.024Z,101830.73
2019-05-07T09:56:27.164Z,101819.67
2019-05-07T09:59:02.340Z,101818.92
2019-05-07T10:01:38.250Z,101820.46
2019-05-07T10:04:13.736Z,101825.28
2019-05-07T10:06:48.679Z,101822.94
2019-05-07T10:09:23.857Z,101827.80
2019-05-07T10:12:04.791Z,101820.92
2019-05-07T10:14:41.957Z,101818.02
2019-05-07T10:17:38.852Z,101814.83
2019-05-07T10:20:21.817Z,101809.22
2019-05-07T10:22:52.223Z,101806.82
2019-05-07T10:25:29.719Z,101800.58
2019-05-07T10:28:08.075Z,101806.25
2019-05-07T10:30:43.250Z,101808.14
2019-05-07T10:33:20.060Z,101807.05
2019-05-07T10:35:55.250Z,101802.16
2019-05-07T10:38:30.436Z,101805.19
2019-05-07T10:41:05.635Z,101802.91
2019-05-07T10:43:42.877Z,101800.27
2019-05-07T10:46:36.889Z,101798.95
2019-05-07T10:49:22.565Z,101795.87
2019-05-07T10:51:57.668Z,101796.05
2019-05-07T10:54:32.862Z,101788.36
2019-05-07T10:57:07.924Z,101788.38
2019-05-07T10:59:43.807Z,101784.33
2019-05-07T11:02:32.460Z,101782.13
2019-05-07T11:05:07.840Z,101778.49
2019-05-07T11:07:43.212Z,101787.84
2019-05-07T11:10:18.512Z,101790.41
2019-05-07T11:12:53.769Z,101780.69
2019-05-07T11:15:32.542Z,101775.73
2019-05-07T11:18:12.742Z,101784.99
2019-05-07T11:21:32.980Z,101772.92
2019-05-07T11:24:07.504Z,101768.59
2019-05-07T11:26:42.682Z,101763.39
2019-05-07T11:29:17.742Z,101762.42
2019-05-07T11:31:52.986Z,101761.30
2019-05-07T11:34:28.188Z,101759.48
2019-05-07T11:37:03.413Z,101756.02
2019-05-07T11:39:38.435Z,101751.86
2019-05-07T11:42:38.632Z,101751.24
2019-05-07T11:45:22.755Z,101747.72
2019-05-07T11:47:57.860Z,101744.91
2019-05-07T11:51:00.474Z,101746.20
2019-05-07T11:53:24.943Z,101740.68
2019-05-07T11:56:02.350Z,101735.45
2019-05-07T11:58:36.713Z,101733.33
2019-05-07T12:01:18.276Z,101732.38
2019-05-07T12:04:28.892Z,101733.33
2019-05-07T12:07:06.202Z,101728.10
2019-05-07T12:09:41.359Z,101734.34
2019-05-07T12:12:16.399Z,101722.93
2019-05-07T12:14:58.067Z,101720.45
2019-05-07T12:17:33.788Z,101723.97
2019-05-07T12:20:08.956Z,101722.10
2019-05-07T12:22:47.238Z,101724.13
2019-05-07T12:25:24.052Z,101723.12
2019-05-07T12:28:02.132Z,101721.95
2019-05-07T12:31:12.139Z,101720.29
2019-05-07T12:34:06.259Z,101711.04
2019-05-07T12:36:41.404Z,101704.16
2019-05-07T12:39:16.487Z,101700.89
2019-05-07T12:41:52.434Z,101694.30
2019-05-07T12:44:28.547Z,101700.95
2019-05-07T12:47:04.368Z,101698.51
2019-05-07T12:49:39.334Z,101690.89
2019-05-07T12:52:24.636Z,101689.23
2019-05-07T12:55:19.502Z,101682.26
2019-05-07T12:57:55.220Z,101679.42
2019-05-07T13:00:47.701Z,101676.34
2019-05-07T13:03:32.438Z,101672.08
2019-05-07T13:06:07.740Z,101672.48
2019-05-07T13:08:42.896Z,101669.69
2019-05-07T13:11:17.893Z,101670.15
2019-05-07T13:13:53.081Z,101670.23
2019-05-07T13:16:28.144Z,101668.28
2019-05-07T13:19:03.308Z,101669.00
2019-05-07T13:21:47.411Z,101662.95
2019-05-07T13:24:15.097Z,101658.52
2019-05-07T13:26:51.878Z,101655.55
2019-05-07T13:29:27.011Z,101658.01
2019-05-07T13:32:04.314Z,101662.12
2019-05-07T13:34:39.606Z,101658.80
2019-05-07T13:37:21.876Z,101655.94
2019-05-07T13:40:15.798Z,101649.55
2019-05-07T13:43:02.867Z,101644.81
2019-05-07T13:45:45.508Z,101651.18
2019-05-07T13:48:22.697Z,101646.34
2019-05-07T13:50:58.095Z,101643.65
2019-05-07T13:53:33.786Z,101639.03
2019-05-07T13:56:12.816Z,101639.97
2019-05-07T13:58:49.668Z,101641.71
2019-05-07T14:01:37.314Z,101631.66
2019-05-07T14:04:13.169Z,101624.56
2019-05-07T14:06:48.188Z,101628.42
2019-05-07T14:12:05.976Z,101628.73
2019-05-07T14:14:42.561Z,101623.95
2019-05-07T14:17:18.344Z,101623.80
2019-05-07T14:19:53.534Z,101625.16
2019-05-07T14:22:28.602Z,101615.50
2019-05-07T14:25:03.792Z,101620.27
2019-05-07T14:27:38.915Z,101612.81
2019-05-07T14:30:15.592Z,101610.87
2019-05-07T14:33:01.838Z,101606.66
2019-05-07T14:35:55.870Z,101610.63
2019-05-07T14:38:38.548Z,101602.82
2019-05-07T14:41:14.023Z,101602.81
2019-05-07T14:44:01.454Z,101601.58
2019-05-07T14:46:47.329Z,101588.17
2019-05-07T14:49:14.655Z,101594.08
2019-05-07T14:51:49.732Z,101588.41
2019-05-07T14:54:24.922Z,101587.28
2019-05-07T14:57:02.147Z,101586.63
2019-05-07T15:00:14.506Z,101593.10
2019-05-07T15:02:49.848Z,101582.46
2019-05-07T15:05:27.644Z,101584.55
2019-05-07T15:08:10.665Z,101574.57
2019-05-07T15:10:48.817Z,101578.55
2019-05-07T15:13:23.989Z,101575.48
2019-05-07T15:15:59.970Z,101566.25
2019-05-07T15:19:03.952Z,101569.72
2019-05-07T15:21:39.324Z,101560.44
2019-05-07T15:24:15.464Z,101554.02
2019-05-07T15:26:53.229Z,101549.39
2019-05-07T15:29:28.307Z,101550.24
2019-05-07T15:32:08.208Z,101543.61
2019-05-07T15:34:44.624Z,101537.42
2019-05-07T15:37:19.636Z,101542.41
2019-05-07T15:39:54.631Z,101536.92
2019-05-07T15:42:29.942Z,101537.17
2019-05-07T15:45:05.230Z,101531.28
2019-05-07T15:47:44.547Z,101530.59
2019-05-07T15:50:19.646Z,101531.08
2019-05-07T15:53:22.552Z,101528.81
2019-05-07T15:55:57.665Z,101523.38
2019-05-07T15:58:33.238Z,101515.13
2019-05-07T16:01:12.804Z,101512.72
2019-05-07T16:03:47.968Z,101515.52
2019-05-07T16:06:23.165Z,101512.64
2019-05-07T16:09:04.175Z,101509.91
2019-05-07T16:11:39.109Z,101504.21
2019-05-07T16:14:26.383Z,101502.58
2019-05-07T16:17:07.163Z,101503.86
2019-05-07T16:19:42.658Z,101497.87
2019-05-07T16:22:24.904Z,101496.09
2019-05-07T16:25:04.896Z,101490.98
2019-05-07T16:27:42.618Z,101494.83
2019-05-07T16:30:18.737Z,101493.63
2019-05-07T16:32:55.623Z,101490.45
2019-05-07T16:35:32.024Z,101487.63
2019-05-07T16:38:07.497Z,101487.40
2019-05-07T16:40:43.007Z,101483.09
2019-05-07T16:43:18.264Z,101480.41
2019-05-07T16:45:53.474Z,101480.45
2019-05-07T16:48:28.550Z,101470.84
2019-05-07T16:51:03.730Z,101464.34
2019-05-07T16:53:38.695Z,101461.34
2019-05-07T16:56:14.444Z,101462.12
2019-05-07T16:58:54.386Z,101459.41
2019-05-07T17:02:12.178Z,101462.05
2019-05-07T17:05:06.688Z,101456.83
2019-05-07T17:07:56.334Z,101460.20
2019-05-07T17:10:31.946Z,101462.44
2019-05-07T17:13:09.785Z,101459.57
2019-05-07T17:16:03.087Z,101455.45
2019-05-07T17:18:36.658Z,101455.06
2019-05-07T17:21:12.319Z,101450.42
2019-05-07T17:23:47.407Z,101447.02
2019-05-07T17:26:23.200Z,101450.63
2019-05-07T17:28:58.450Z,101449.41
2019-05-07T17:31:33.926Z,101444.38
2019-05-07T17:34:09.014Z,101442.11
2019-05-07T17:36:44.186Z,101436.41
2019-05-07T17:39:19.272Z,101436.70
2019-05-07T17:41:54.520Z,101437.96
2019-05-07T17:44:29.529Z,101432.20
2019-05-07T17:47:04.671Z,101435.03
2019-05-07T17:50:16.974Z,101433.11
2019-05-07T17:52:53.467Z,101428.05
2019-05-07T17:55:28.699Z,101431.41
2019-05-07T17:58:03.905Z,101427.30
2019-05-07T18:00:39.496Z,101428.64
2019-05-07T18:03:34.034Z,101423.24
2019-05-07T18:06:09.260Z,101426.89
2019-05-07T18:08:44.386Z,101424.00
2019-05-07T18:11:34.679Z,101426.03
2019-05-07T18:14:32.133Z,101424.88
2019-05-07T18:17:28.165Z,101425.05
2019-05-07T18:20:04.148Z,101420.22
2019-05-07T18:22:39.343Z,101427.19
2019-05-07T18:25:16.021Z,101423.91
2019-05-07T18:27:52.668Z,101422.77
2019-05-07T18:30:27.887Z,101417.31
2019-05-07T18:33:37.023Z,101415.16
2019-05-07T18:36:12.323Z,101414.55
2019-05-07T18:38:47.454Z,101424.08
2019-05-07T18:41:22.675Z,101433.89
2019-05-07T18:44:08.962Z,101458.50
2019-05-07T18:46:34.940Z,101461.73
2019-05-07T18:49:10.081Z,101464.58
2019-05-07T18:51:45.151Z,101455.35
2019-05-07T18:54:27.938Z,101454.55
2019-05-07T18:56:56.944Z,101455.60
2019-05-07T18:59:35.368Z,101456.08
2019-05-07T19:02:10.747Z,101455.73
2019-05-07T19:04:45.889Z,101451.75
2019-05-07T19:07:23.101Z,101457.70
2019-05-07T19:09:57.741Z,101463.16
2019-05-07T19:12:34.855Z,101456.76
2019-05-07T19:15:12.431Z,101463.14
2019-05-07T19:17:47.768Z,101462.73
2019-05-07T19:20:22.998Z,101470.21
2019-05-07T19:22:57.996Z,101468.95
2019-05-07T19:25:33.328Z,101472.19
2019-05-07T19:28:11.965Z,101466.77
2019-05-07T19:30:45.606Z,101466.81
2019-05-07T19:33:25.858Z,101468.52
2019-05-07T19:35:57.737Z,101469.43
2019-05-07T19:38:33.022Z,101467.69
2019-05-07T19:41:08.291Z,101459.80
2019-05-07T19:43:44.450Z,101465.45
2019-05-07T19:46:19.449Z,101460.95
2019-05-07T19:48:55.222Z,101459.71
2019-05-07T19:51:32.051Z,101455.34
2019-05-07T19:54:07.089Z,101449.88
2019-05-07T19:56:42.741Z,101447.90
2019-05-07T19:59:17.795Z,101444.58
2019-05-07T20:01:57.420Z,101438.13
2019-05-07T20:04:33.199Z,101437.17
2019-05-07T20:07:08.304Z,101437.91
2019-05-07T20:09:43.606Z,101441.78
2019-05-07T20:12:18.735Z,101431.80
2019-05-07T20:14:55.473Z,101435.62
2019-05-07T20:17:33.472Z,101435.05
2019-05-07T20:20:07.963Z,101441.38
2019-05-07T20:22:43.195Z,101432.72
2019-05-07T20:25:22.430Z,101434.78
2019-05-07T20:27:56.867Z,101432.31
2019-05-07T20:30:34.967Z,101440.20
2019-05-07T20:33:10.063Z,101436.66
2019-05-07T20:35:45.263Z,101430.02
2019-05-07T20:38:20.312Z,101432.30
2019-05-07T20:40:55.485Z,101427.05
2019-05-07T20:43:32.298Z,101426.77
2019-05-07T20:46:07.282Z,101419.25
2019-05-07T20:48:42.512Z,101422.39
2019-05-07T20:51:18.740Z,101412.23
2019-05-07T20:54:09.779Z,101409.31
2019-05-07T20:57:06.439Z,101402.53
2019-05-07T20:59:41.661Z,101399.56
2019-05-07T21:02:16.797Z,101399.89
2019-05-07T21:04:52.013Z,101402.86
2019-05-07T21:07:27.030Z,101402.05
2019-05-07T21:10:02.245Z,101397.77
2019-05-07T21:12:39.729Z,101393.13
2019-05-07T21:15:14.732Z,101388.03
2019-05-07T21:17:49.744Z,101384.09
2019-05-07T21:20:24.777Z,101378.72
2019-05-07T21:22:59.716Z,101377.84
2019-05-07T21:25:42.562Z,101378.72
2019-05-07T21:28:12.266Z,101372.80
2019-05-07T21:30:47.587Z,101367.06
2019-05-07T21:33:23.091Z,101366.50
2019-05-07T21:35:58.091Z,101367.55
2019-05-07T21:38:33.364Z,101354.08
2019-05-07T21:41:09.409Z,101359.28
2019-05-07T21:43:46.190Z,101361.39
2019-05-07T21:46:22.176Z,101361.00
2019-05-07T21:48:57.627Z,101351.64
2019-05-07T21:51:33.223Z,101358.55
2019-05-07T21:54:33.319Z,101347.22
2019-05-07T21:57:33.193Z,101348.83
2019-05-07T22:00:28.496Z,101342.00
2019-05-07T22:03:09.799Z,101341.65
2019-05-07T22:05:45.150Z,101338.37
2019-05-07T22:08:21.906Z,101340.20
2019-05-07T22:10:57.006Z,101340.58
2019-05-07T22:14:07.295Z,101331.79
2019-05-07T22:16:42.535Z,101330.62
2019-05-07T22:19:17.622Z,101324.64
2019-05-07T22:21:52.810Z,101325.81
2019-05-07T22:24:27.906Z,101320.94
2019-05-07T22:27:04.261Z,101320.34
2019-05-07T22:29:41.710Z,101322.09
2019-05-07T22:32:36.186Z,101316.11
2019-05-07T22:35:22.542Z,101316.41
2019-05-07T22:38:03.862Z,101312.84
2019-05-07T22:40:40.541Z,101313.22
2019-05-07T22:43:17.224Z,101311.17
2019-05-07T22:45:52.350Z,101307.21
2019-05-07T22:48:27.346Z,101307.59
2019-05-07T22:51:02.804Z,101305.77
2019-05-07T22:53:37.968Z,101296.90
2019-05-07T22:56:14.174Z,101296.95
2019-05-07T22:58:53.581Z,101291.58
2019-05-07T23:01:38.562Z,101288.66
2019-05-07T23:04:13.756Z,101282.48
2019-05-07T23:06:48.884Z,101279.22
2019-05-07T23:09:24.190Z,101276.24
2019-05-07T23:12:01.740Z,101272.42
2019-05-07T23:14:36.694Z,101261.59
2019-05-07T23:17:12.583Z,101255.92
2019-05-07T23:19:51.941Z,101259.77
2019-05-07T23:22:25.644Z,101258.97
2019-05-07T23:25:00.646Z,101258.48
2019-05-07T23:27:35.814Z,101258.13
2019-05-07T23:30:12.983Z,101256.25
2019-05-07T23:32:48.338Z,101249.92
2019-05-07T23:35:23.380Z,101242.42
2019-05-07T23:37:58.370Z,101244.11
2019-05-07T23:40:47.650Z,101235.08
2019-05-07T23:43:23.610Z,101233.00
2019-05-07T23:45:58.684Z,101221.74
2019-05-07T23:48:34.473Z,101220.64
2019-05-07T23:51:09.476Z,101216.30
2019-05-07T23:53:44.536Z,101210.91
2019-05-07T23:56:22.141Z,101212.38
2019-05-07T23:58:57.218Z,101208.45
